createdAt,value
2022-10-15T00:02:42.389Z,14.00
2022-10-15T00:05:45.669Z,14.00
2022-10-15T00:08:49.736Z,13.90
2022-10-15T00:11:53.023Z,13.90
2022-10-15T00:14:56.576Z,13.90
2022-10-15T00:18:01.236Z,13.80
2022-10-15T00:21:07.795Z,13.80
2022-10-15T00:24:11.067Z,13.80
2022-10-15T00:27:14.562Z,13.70
2022-10-15T00:30:17.744Z,13.70
2022-10-15T00:33:23.128Z,13.80
2022-10-15T00:36:27.848Z,13.70
2022-10-15T00:39:30.982Z,13.70
2022-10-15T00:42:34.089Z,13.60
2022-10-15T00:45:37.644Z,13.60
2022-10-15T00:48:42.743Z,13.60
2022-10-15T00:51:48.970Z,13.60
2022-10-15T00:54:56.866Z,13.60
2022-10-15T00:58:04.084Z,13.50
2022-10-15T01:01:07.352Z,13.50
2022-10-15T01:04:12.676Z,13.50
2022-10-15T01:10:22.188Z,13.40
2022-10-15T01:13:37.115Z,13.40
2022-10-15T01:16:47.893Z,13.40
2022-10-15T01:20:25.219Z,13.30
2022-10-15T01:24:15.597Z,13.40
2022-10-15T01:27:31.527Z,13.40
2022-10-15T01:30:39.527Z,13.30
2022-10-15T01:33:46.640Z,13.40
2022-10-15T01:36:55.103Z,13.30
2022-10-15T01:40:08.660Z,13.30
2022-10-15T01:43:17.042Z,13.20
2022-10-15T01:46:28.887Z,13.20
2022-10-15T01:49:35.524Z,13.20
2022-10-15T01:52:41.714Z,13.20
2022-10-15T01:55:47.586Z,13.20
2022-10-15T01:58:54.226Z,13.20
2022-10-15T02:01:59.329Z,13.30
2022-10-15T02:05:02.603Z,13.20
2022-10-15T02:08:14.990Z,13.20
2022-10-15T02:11:19.391Z,13.30
2022-10-15T02:14:30.841Z,13.30
2022-10-15T02:17:40.430Z,13.30
2022-10-15T02:20:50.291Z,13.30
2022-10-15T02:23:57.820Z,13.30
2022-10-15T02:27:04.034Z,13.30
2022-10-15T02:30:10.369Z,13.30
2022-10-15T02:33:17.108Z,13.30
2022-10-15T02:36:21.093Z,13.30
2022-10-15T02:39:26.091Z,13.30
2022-10-15T02:42:29.575Z,13.30
2022-10-15T02:45:32.944Z,13.30
2022-10-15T02:48:37.510Z,13.30
2022-10-15T02:51:40.971Z,13.30
2022-10-15T02:54:44.352Z,13.30
2022-10-15T02:57:47.435Z,13.20
2022-10-15T03:00:50.907Z,13.20
2022-10-15T03:03:55.507Z,13.20
2022-10-15T03:06:58.788Z,13.20
2022-10-15T03:10:02.030Z,13.20
2022-10-15T03:13:06.190Z,13.10
2022-10-15T03:16:11.283Z,13.20
2022-10-15T03:19:16.180Z,13.20
2022-10-15T03:22:19.522Z,13.20
2022-10-15T03:25:22.947Z,13.10
2022-10-15T03:28:26.416Z,13.10
2022-10-15T03:31:29.808Z,13.00
2022-10-15T03:34:34.411Z,13.00
2022-10-15T03:37:37.708Z,13.00
2022-10-15T03:40:41.111Z,12.90
2022-10-15T03:43:44.395Z,12.90
2022-10-15T03:46:47.748Z,12.90
2022-10-15T03:49:52.591Z,12.90
2022-10-15T03:52:55.955Z,13.00
2022-10-15T03:56:05.154Z,12.90
2022-10-15T03:59:08.461Z,12.90
2022-10-15T04:02:11.536Z,12.90
2022-10-15T04:05:16.129Z,12.90
2022-10-15T04:08:19.536Z,13.00
2022-10-15T04:11:22.837Z,12.90
2022-10-15T04:14:26.053Z,12.90
2022-10-15T04:17:29.385Z,13.00
2022-10-15T04:20:34.017Z,13.10
2022-10-15T04:23:37.616Z,13.10
2022-10-15T04:26:40.705Z,13.20
2022-10-15T04:29:44.109Z,13.20
2022-10-15T04:32:47.302Z,13.20
2022-10-15T04:36:00.023Z,13.20
2022-10-15T04:39:03.729Z,13.30
2022-10-15T04:42:07.275Z,13.20
2022-10-15T04:45:11.301Z,13.30
2022-10-15T04:48:14.514Z,13.30
2022-10-15T04:51:21.467Z,13.30
2022-10-15T04:54:24.738Z,13.20
2022-10-15T04:57:27.898Z,13.20
2022-10-15T05:00:31.109Z,13.20
2022-10-15T05:03:37.403Z,13.20
2022-10-15T05:06:44.565Z,13.10
2022-10-15T05:09:47.876Z,13.10
2022-10-15T05:12:54.131Z,13.10
2022-10-15T05:16:09.351Z,13.10
2022-10-15T05:19:13.234Z,13.20
2022-10-15T05:22:17.790Z,13.20
2022-10-15T05:25:20.895Z,13.20
2022-10-15T05:28:24.261Z,13.20
2022-10-15T05:31:29.867Z,13.20
2022-10-15T05:34:33.754Z,13.20
2022-10-15T05:37:38.225Z,13.20
2022-10-15T05:40:41.353Z,13.30
2022-10-15T05:43:44.935Z,13.30
2022-10-15T05:46:48.218Z,13.40
2022-10-15T05:49:51.642Z,13.40
2022-10-15T05:52:57.355Z,13.50
2022-10-15T05:56:01.062Z,13.50
2022-10-15T05:59:04.857Z,13.50
2022-10-15T06:02:08.205Z,13.60
2022-10-15T06:05:11.443Z,13.60
2022-10-15T06:08:16.551Z,13.60
2022-10-15T06:11:20.892Z,13.70
2022-10-15T06:14:24.778Z,13.80
2022-10-15T06:17:27.886Z,13.80
2022-10-15T06:20:31.246Z,13.80
2022-10-15T06:23:36.314Z,13.80
2022-10-15T06:26:39.564Z,13.90
2022-10-15T06:29:42.861Z,13.90
2022-10-15T06:32:49.741Z,14.00
2022-10-15T06:35:52.972Z,13.90
2022-10-15T06:38:58.134Z,13.90
2022-10-15T06:42:01.423Z,14.00
2022-10-15T06:45:05.117Z,13.90
2022-10-15T06:48:08.989Z,13.90
2022-10-15T06:51:14.003Z,13.90
2022-10-15T06:54:18.663Z,13.90
2022-10-15T06:57:22.291Z,13.90
2022-10-15T07:00:26.648Z,14.00
2022-10-15T07:03:30.381Z,14.00
2022-10-15T07:06:35.310Z,14.00
2022-10-15T07:09:39.895Z,14.10
2022-10-15T07:12:43.073Z,14.20
2022-10-15T07:15:46.408Z,14.30
2022-10-15T07:18:49.815Z,14.30
2022-10-15T07:21:53.125Z,14.30
2022-10-15T07:24:57.914Z,14.40
2022-10-15T07:28:01.304Z,14.40
2022-10-15T07:31:05.993Z,14.50
2022-10-15T07:34:09.088Z,14.50
2022-10-15T07:37:12.444Z,14.60
2022-10-15T07:40:17.333Z,14.60
2022-10-15T07:43:20.721Z,14.70
2022-10-15T07:46:24.133Z,14.80
2022-10-15T07:49:27.517Z,14.70
2022-10-15T07:52:31.875Z,14.80
2022-10-15T07:55:36.625Z,14.90
2022-10-15T07:58:40.360Z,15.00
2022-10-15T08:01:45.879Z,15.00
2022-10-15T08:04:51.677Z,15.00
2022-10-15T08:07:54.939Z,15.00
2022-10-15T08:10:59.889Z,15.00
2022-10-15T08:14:03.860Z,15.10
2022-10-15T08:17:07.585Z,15.00
2022-10-15T08:20:11.733Z,15.00
2022-10-15T08:23:17.129Z,15.10
2022-10-15T08:26:21.958Z,15.20
2022-10-15T08:29:25.297Z,15.30
2022-10-15T08:32:28.615Z,15.30
2022-10-15T08:35:35.393Z,15.40
2022-10-15T08:38:38.743Z,15.50
2022-10-15T08:41:48.408Z,15.50
2022-10-15T08:44:56.475Z,15.50
2022-10-15T08:48:04.063Z,15.50
2022-10-15T08:51:11.553Z,15.50
2022-10-15T08:54:19.168Z,15.50
2022-10-15T08:57:35.887Z,15.50
2022-10-15T09:00:44.473Z,15.50
2022-10-15T09:03:58.172Z,15.60
2022-10-15T09:07:09.437Z,15.60
2022-10-15T09:10:18.502Z,15.70
2022-10-15T09:13:28.981Z,15.80
2022-10-15T09:16:37.035Z,15.90
2022-10-15T09:19:40.179Z,16.00
2022-10-15T09:22:43.567Z,16.10
2022-10-15T09:25:54.332Z,16.20
2022-10-15T09:29:04.925Z,16.40
2022-10-15T09:32:20.201Z,16.60
2022-10-15T09:35:28.119Z,16.70
2022-10-15T09:38:42.037Z,16.80
2022-10-15T09:41:56.464Z,16.80
2022-10-15T09:45:03.757Z,16.80
2022-10-15T09:48:16.803Z,16.80
2022-10-15T09:51:26.547Z,16.90
2022-10-15T09:54:39.173Z,17.10
2022-10-15T09:57:43.616Z,17.30
2022-10-15T10:01:00.922Z,17.40
2022-10-15T10:04:18.574Z,17.70
2022-10-15T10:07:31.611Z,17.90
2022-10-15T10:10:36.974Z,18.20
2022-10-15T10:13:46.839Z,18.40
2022-10-15T10:17:07.371Z,18.50
2022-10-15T10:20:19.650Z,18.80
2022-10-15T10:23:25.067Z,19.00
2022-10-15T10:26:28.592Z,19.10
2022-10-15T10:29:39.173Z,18.90
2022-10-15T10:32:44.492Z,18.60
2022-10-15T10:35:51.267Z,18.40
2022-10-15T10:39:02.542Z,18.40
2022-10-15T10:42:08.146Z,18.50
2022-10-15T10:45:20.312Z,18.60
2022-10-15T10:48:27.115Z,18.70
2022-10-15T10:51:31.041Z,18.60
2022-10-15T10:54:35.325Z,18.80
2022-10-15T10:57:46.264Z,18.70
2022-10-15T11:00:52.452Z,18.80
2022-10-15T11:03:57.189Z,18.80
2022-10-15T11:07:04.148Z,18.90
2022-10-15T11:10:13.996Z,19.20
2022-10-15T11:13:35.370Z,19.40
2022-10-15T11:16:49.529Z,19.60
2022-10-15T11:23:41.524Z,19.70
2022-10-15T11:27:10.427Z,19.40
2022-10-15T11:30:29.168Z,19.40
2022-10-15T11:33:59.747Z,19.80
2022-10-15T11:37:19.346Z,20.10
2022-10-15T11:40:35.207Z,20.00
2022-10-15T11:43:53.499Z,19.70
2022-10-15T11:47:09.965Z,19.50
2022-10-15T11:50:23.261Z,19.10
2022-10-15T11:53:45.043Z,18.90
2022-10-15T11:56:50.434Z,18.70
2022-10-15T11:59:58.258Z,18.40
2022-10-15T12:03:06.748Z,18.30
2022-10-15T12:06:14.381Z,18.40
2022-10-15T12:09:26.500Z,18.30
2022-10-15T12:12:40.880Z,18.40
2022-10-15T12:15:50.218Z,18.40
2022-10-15T12:19:01.857Z,18.30
2022-10-15T12:22:12.398Z,18.20
2022-10-15T12:25:46.422Z,18.20
2022-10-15T12:28:51.552Z,18.10
2022-10-15T12:31:57.232Z,18.10
2022-10-15T12:35:02.332Z,18.10
2022-10-15T12:38:31.088Z,18.00
2022-10-15T12:41:41.279Z,18.00
2022-10-15T12:44:50.143Z,17.90
2022-10-15T12:47:55.947Z,17.90
2022-10-15T12:51:39.458Z,17.80
2022-10-15T12:54:43.693Z,17.70
2022-10-15T12:57:56.826Z,17.80
2022-10-15T13:01:07.681Z,17.80
2022-10-15T13:04:11.980Z,18.00
2022-10-15T13:07:16.197Z,18.10
2022-10-15T13:10:22.745Z,18.20
2022-10-15T13:13:29.639Z,18.30
2022-10-15T13:16:32.885Z,18.40
2022-10-15T13:19:40.363Z,18.50
2022-10-15T13:22:43.524Z,18.50
2022-10-15T13:25:46.745Z,18.50
2022-10-15T13:28:53.067Z,18.50
2022-10-15T13:31:58.672Z,18.50
2022-10-15T13:35:03.425Z,18.60
2022-10-15T13:38:06.776Z,18.60
2022-10-15T13:41:10.201Z,18.60
2022-10-15T13:44:23.262Z,18.70
2022-10-15T13:47:28.358Z,18.80
2022-10-15T13:50:34.770Z,18.90
2022-10-15T13:53:41.325Z,19.10
2022-10-15T13:56:50.236Z,19.10
2022-10-15T13:59:55.088Z,19.10
2022-10-15T14:03:19.585Z,19.00
2022-10-15T14:06:24.392Z,19.00
2022-10-15T14:09:31.154Z,19.00
2022-10-15T14:12:34.319Z,19.00
2022-10-15T14:15:56.192Z,19.00
2022-10-15T14:19:10.704Z,19.00
2022-10-15T14:22:19.224Z,19.10
2022-10-15T14:25:25.643Z,19.00
2022-10-15T14:28:30.595Z,18.80
2022-10-15T14:31:40.998Z,18.60
2022-10-15T14:34:44.193Z,18.60
2022-10-15T14:37:47.325Z,18.50
2022-10-15T14:40:59.359Z,18.40
2022-10-15T14:44:18.402Z,18.30
2022-10-15T14:47:26.874Z,18.30
2022-10-15T14:50:33.590Z,18.20
2022-10-15T14:53:39.555Z,18.10
2022-10-15T14:56:43.540Z,18.20
2022-10-15T14:59:46.782Z,18.10
2022-10-15T15:02:52.007Z,18.10
2022-10-15T15:05:57.558Z,18.20
2022-10-15T15:09:00.790Z,18.00
2022-10-15T15:12:03.934Z,18.00
2022-10-15T15:15:13.825Z,18.00
2022-10-15T15:18:18.855Z,18.00
2022-10-15T15:21:24.895Z,18.00
2022-10-15T15:24:28.107Z,18.00
2022-10-15T15:27:37.102Z,18.00
2022-10-15T15:30:42.133Z,18.00
2022-10-15T15:33:46.703Z,18.00
2022-10-15T15:36:49.942Z,17.90
2022-10-15T15:39:53.269Z,17.80
2022-10-15T15:42:56.725Z,17.70
2022-10-15T15:46:00.023Z,17.70
2022-10-15T15:49:04.748Z,17.60
2022-10-15T15:52:09.163Z,17.40
2022-10-15T15:55:12.908Z,17.30
2022-10-15T15:58:16.225Z,17.20
2022-10-15T16:01:20.033Z,17.10
2022-10-15T16:04:24.681Z,17.00
2022-10-15T16:07:28.590Z,16.90
2022-10-15T16:10:32.039Z,16.90
2022-10-15T16:13:35.954Z,16.80
2022-10-15T16:16:39.171Z,16.80
2022-10-15T16:19:43.745Z,16.70
2022-10-15T16:22:50.397Z,16.70
2022-10-15T16:25:54.626Z,16.60
2022-10-15T16:28:58.007Z,16.50
2022-10-15T16:32:01.453Z,16.50
2022-10-15T16:35:06.900Z,16.40
2022-10-15T16:38:10.159Z,16.40
2022-10-15T16:41:14.416Z,16.30
2022-10-15T16:44:17.824Z,16.30
2022-10-15T16:47:21.424Z,16.30
2022-10-15T16:50:26.007Z,16.20
2022-10-15T16:53:29.584Z,16.20
2022-10-15T16:56:34.673Z,16.10
2022-10-15T16:59:37.815Z,16.00
2022-10-15T17:02:41.163Z,16.00
2022-10-15T17:05:46.597Z,15.90
2022-10-15T17:08:52.082Z,15.90
2022-10-15T17:11:55.622Z,15.80
2022-10-15T17:14:59.474Z,15.80
2022-10-15T17:18:04.263Z,15.80
2022-10-15T17:21:09.761Z,15.70
2022-10-15T17:24:15.426Z,15.70
2022-10-15T17:27:19.286Z,15.70
2022-10-15T17:30:23.334Z,15.60
2022-10-15T17:33:27.447Z,15.60
2022-10-15T17:36:37.130Z,15.50
2022-10-15T17:39:40.831Z,15.50
2022-10-15T17:42:44.753Z,15.50
2022-10-15T17:45:48.733Z,15.40
2022-10-15T17:48:52.550Z,15.40
2022-10-15T17:51:57.575Z,15.30
2022-10-15T17:55:01.204Z,15.30
2022-10-15T17:58:04.745Z,15.30
2022-10-15T18:01:13.360Z,15.30
2022-10-15T18:04:17.095Z,15.30
2022-10-15T18:07:21.975Z,15.30
2022-10-15T18:10:25.952Z,15.30
2022-10-15T18:13:29.859Z,15.30
2022-10-15T18:16:34.037Z,15.20
2022-10-15T18:19:38.207Z,15.20
2022-10-15T18:22:43.781Z,15.20
2022-10-15T18:25:48.530Z,15.20
2022-10-15T18:28:55.037Z,15.20
2022-10-15T18:31:59.589Z,15.20
2022-10-15T18:35:04.086Z,15.10
2022-10-15T18:38:09.512Z,15.10
2022-10-15T18:41:18.141Z,15.10
2022-10-15T18:44:23.589Z,15.10
2022-10-15T18:47:31.164Z,15.10
2022-10-15T18:50:37.113Z,15.10
2022-10-15T18:53:42.942Z,15.00
2022-10-15T18:56:47.094Z,15.00
2022-10-15T18:59:50.861Z,14.90
2022-10-15T19:02:56.741Z,14.90
2022-10-15T19:06:00.913Z,14.90
2022-10-15T19:09:07.253Z,14.90
2022-10-15T19:12:11.096Z,14.90
2022-10-15T19:15:14.360Z,14.90
2022-10-15T19:18:20.781Z,14.90
2022-10-15T19:21:24.216Z,14.80
2022-10-15T19:24:29.272Z,14.80
2022-10-15T19:27:33.812Z,14.80
2022-10-15T19:30:37.773Z,14.80
2022-10-15T19:33:42.512Z,14.80
2022-10-15T19:36:48.620Z,14.70
2022-10-15T19:39:53.578Z,14.70
2022-10-15T19:42:57.519Z,14.80
2022-10-15T19:46:05.233Z,14.80
2022-10-15T19:49:10.484Z,14.80
2022-10-15T19:52:14.157Z,14.80
2022-10-15T19:55:21.975Z,14.70
2022-10-15T19:58:26.072Z,14.70
2022-10-15T20:01:30.717Z,14.80
2022-10-15T20:04:35.094Z,14.70
2022-10-15T20:07:39.233Z,14.70
2022-10-15T20:10:44.628Z,14.70
2022-10-15T20:13:48.180Z,14.70
2022-10-15T20:16:51.623Z,14.60
2022-10-15T20:19:55.202Z,14.60
2022-10-15T20:22:58.725Z,14.60
2022-10-15T20:26:06.002Z,14.50
2022-10-15T20:29:09.739Z,14.40
2022-10-15T20:32:30.446Z,14.40
2022-10-15T20:35:38.871Z,14.40
2022-10-15T20:38:42.574Z,14.30
2022-10-15T20:41:47.254Z,14.30
2022-10-15T20:44:50.771Z,14.20
2022-10-15T20:47:54.595Z,14.20
2022-10-15T20:50:58.127Z,14.20
2022-10-15T20:54:01.769Z,14.20
2022-10-15T20:57:06.512Z,14.00
2022-10-15T21:00:11.035Z,14.00
2022-10-15T21:03:14.600Z,14.00
2022-10-15T21:06:18.058Z,14.00
2022-10-15T21:09:21.469Z,14.00
2022-10-15T21:12:26.524Z,14.00
2022-10-15T21:15:30.697Z,14.00
2022-10-15T21:18:34.491Z,13.90
2022-10-15T21:21:37.824Z,13.90
2022-10-15T21:24:41.053Z,13.90
2022-10-15T21:27:46.137Z,13.90
2022-10-15T21:30:49.626Z,13.80
2022-10-15T21:33:53.556Z,13.90
2022-10-15T21:36:56.885Z,13.90
2022-10-15T21:40:00.091Z,13.90
2022-10-15T21:43:04.964Z,13.90
2022-10-15T21:46:09.744Z,14.00
2022-10-15T21:49:14.035Z,14.00
2022-10-15T21:52:17.288Z,14.00
2022-10-15T21:55:20.882Z,14.00
2022-10-15T21:58:25.856Z,14.00
2022-10-15T22:01:31.656Z,14.00
2022-10-15T22:04:35.897Z,14.10
2022-10-15T22:07:40.346Z,14.10
2022-10-15T22:10:43.685Z,14.10
2022-10-15T22:13:52.865Z,14.10
2022-10-15T22:16:56.008Z,14.10
2022-10-15T22:19:59.125Z,14.10
2022-10-15T22:23:02.493Z,14.10
2022-10-15T22:26:05.680Z,14.10
2022-10-15T22:29:17.231Z,14.10
2022-10-15T22:32:20.345Z,14.10
2022-10-15T22:35:23.703Z,14.00
2022-10-15T22:38:26.798Z,14.00
2022-10-15T22:41:31.474Z,13.90
2022-10-15T22:44:36.173Z,13.90
2022-10-15T22:47:39.487Z,13.90
2022-10-15T22:50:42.807Z,13.80
2022-10-15T22:53:46.148Z,13.80
2022-10-15T22:56:49.798Z,13.70
2022-10-15T22:59:57.181Z,13.70
2022-10-15T23:03:02.477Z,13.70
2022-10-15T23:06:06.561Z,13.60
2022-10-15T23:09:10.184Z,13.60
2022-10-15T23:12:13.309Z,13.60
2022-10-15T23:15:18.130Z,13.50
2022-10-15T23:18:21.254Z,13.50
2022-10-15T23:21:31.509Z,13.50
2022-10-15T23:24:34.815Z,13.40
2022-10-15T23:27:38.263Z,13.40
2022-10-15T23:30:42.998Z,13.40
2022-10-15T23:33:46.427Z,13.40
2022-10-15T23:36:50.368Z,13.40
2022-10-15T23:39:54.460Z,13.30
2022-10-15T23:42:57.834Z,13.30
2022-10-15T23:46:02.829Z,13.20
2022-10-15T23:49:06.688Z,13.20
2022-10-15T23:52:10.050Z,13.20
2022-10-15T23:55:13.352Z,13.20
2022-10-15T23:58:16.940Z,13.20
